Time;durP1;ratioP1;P1;durP2;ratioP2;P2;SDS_P1;SDS_P2;PMS_P1;PMS_P2;Temp;Humidity;BMP_temperature;BMP_pressure;BME280_temperature;BME280_humidity;BME280_pressure;Samples;Min_cycle;Max_cycle;Signal;HPM_P1;HPM_P2
2023/05/05 00:01:59;;;;;;;3.20;3.00;;;22.60;52.10;23.60;100667.00;;;;5028652;28;20179;-54
2023/05/05 00:04:24;;;;;;;3.30;3.00;;;22.50;52.00;23.60;100661.00;;;;5031178;28;20194;-57
2023/05/05 00:06:50;;;;;;;3.37;3.17;;;22.50;52.20;23.60;100658.00;;;;5026933;28;20649;-57
2023/05/05 00:09:16;;;;;;;3.40;3.10;;;22.50;52.20;23.60;100651.00;;;;5033915;28;20198;-58
2023/05/05 00:11:42;;;;;;;3.20;3.00;;;22.50;52.30;23.50;100650.00;;;;5030571;28;20258;-57
2023/05/05 00:14:07;;;;;;;3.50;3.20;;;22.50;52.20;23.50;100654.00;;;;5026819;28;20179;-56
2023/05/05 00:16:33;;;;;;;3.30;3.00;;;22.50;52.30;23.50;100655.00;;;;5028008;28;20186;-58
2023/05/05 00:18:59;;;;;;;3.27;2.97;;;22.50;52.20;23.50;100661.00;;;;5028395;28;20545;-57
2023/05/05 00:21:26;;;;;;;3.50;3.20;;;22.50;52.30;23.50;100660.00;;;;5028407;28;20183;-56
2023/05/05 00:23:52;;;;;;;3.40;3.10;;;22.50;52.20;23.50;100646.00;;;;5028148;28;20260;-55
2023/05/05 00:26:18;;;;;;;3.23;2.93;;;22.50;52.30;23.50;100654.00;;;;5028323;28;20225;-56
2023/05/05 00:28:43;;;;;;;3.10;2.90;;;22.50;52.30;23.50;100658.00;;;;5027809;28;20324;-57
2023/05/05 00:31:09;;;;;;;3.40;3.20;;;22.50;52.30;23.40;100648.00;;;;5027719;28;20217;-57
2023/05/05 00:33:35;;;;;;;3.37;3.10;;;22.40;52.20;23.40;100638.00;;;;5027854;28;20179;-55
2023/05/05 00:36:01;;;;;;;3.40;3.20;;;22.40;52.20;23.40;100653.00;;;;5027686;28;20268;-57
2023/05/05 00:38:27;;;;;;;3.40;3.10;;;22.40;52.20;23.40;100649.00;;;;5027718;28;20195;-57
2023/05/05 00:40:53;;;;;;;3.37;3.17;;;22.40;52.20;23.40;100655.00;;;;5027771;28;20179;-59
2023/05/05 00:43:18;;;;;;;3.53;3.23;;;22.40;52.20;23.20;100650.00;;;;5027660;28;20197;-57
2023/05/05 00:45:46;;;;;;;3.40;3.20;;;22.40;52.20;23.30;100645.00;;;;5027532;28;20687;-57
2023/05/05 00:48:12;;;;;;;3.00;2.80;;;22.40;52.20;23.30;100634.00;;;;5026174;28;20207;-55
2023/05/05 00:50:38;;;;;;;3.53;3.20;;;22.40;52.20;23.30;100654.00;;;;5026415;28;20203;-57
2023/05/05 00:53:05;;;;;;;3.23;3.03;;;22.40;52.20;23.30;100660.00;;;;5027564;28;20254;-57
2023/05/05 00:55:31;;;;;;;3.07;2.87;;;22.40;52.20;23.30;100659.00;;;;5026350;28;20170;-56
2023/05/05 00:57:57;;;;;;;3.30;3.10;;;22.40;52.30;23.30;100650.00;;;;5027474;28;20195;-59
2023/05/05 01:00:23;;;;;;;3.83;3.00;;;22.40;52.30;23.30;100658.00;;;;5027758;28;20232;-63
2023/05/05 01:02:50;;;;;;;3.40;3.10;;;22.40;52.30;23.30;100659.00;;;;5038949;28;20191;-60
2023/05/05 01:05:16;;;;;;;3.30;3.10;;;22.30;52.20;23.30;100663.00;;;;5039707;28;20171;-56
2023/05/05 01:08:22;;;;;;;3.23;3.03;;;22.40;52.40;23.30;100664.00;;;;5027803;28;20254;-58
2023/05/05 01:11:02;;;;;;;3.30;3.10;;;22.30;52.30;23.20;100654.00;;;;5027463;28;20193;-55
2023/05/05 01:14:12;;;;;;;3.30;3.10;;;22.30;52.40;23.20;100660.00;;;;5029238;28;20259;-56
2023/05/05 01:16:40;;;;;;;3.20;3.00;;;22.30;52.40;23.20;100656.00;;;;5033087;28;20179;-56
2023/05/05 01:19:27;;;;;;;3.47;3.17;;;22.30;52.50;23.10;100656.00;;;;5046839;28;20215;-56
2023/05/05 01:21:55;;;;;;;3.27;3.07;;;22.30;52.50;23.10;100657.00;;;;5027997;28;20217;-56
2023/05/05 01:24:58;;;;;;;3.30;3.10;;;22.30;52.50;23.10;100655.00;;;;5027845;28;20541;-57
2023/05/05 01:28:03;;;;;;;3.30;3.10;;;22.30;52.60;23.10;100654.00;;;;5027478;28;20250;-56
2023/05/05 01:31:19;;;;;;;3.20;3.00;;;22.30;52.70;23.10;100657.00;;;;5026317;28;20209;-55
2023/05/05 01:33:50;;;;;;;3.30;3.10;;;22.20;52.60;23.10;100650.00;;;;5025964;28;20179;-58
2023/05/05 01:36:23;;;;;;;3.20;3.00;;;22.30;52.80;23.10;100653.00;;;;5026048;28;20179;-57
2023/05/05 01:38:55;;;;;;;3.30;3.10;;;22.30;52.80;22.90;100667.00;;;;5026265;28;20218;-57
2023/05/05 01:41:50;;;;;;;3.23;3.03;;;22.30;52.80;23.10;100666.00;;;;5026822;28;20554;-56
2023/05/05 01:44:18;;;;;;;3.13;2.93;;;22.30;52.80;23.10;100648.00;;;;5009363;28;20192;-57
2023/05/05 01:46:44;;;;;;;3.40;3.20;;;22.20;52.80;23.10;100657.00;;;;5025735;28;20194;-56
2023/05/05 01:49:10;;;;;;;3.30;3.10;;;22.30;52.80;23.10;100656.00;;;;5025932;28;20638;-56
2023/05/05 01:51:36;;;;;;;3.17;2.97;;;22.30;53.00;23.10;100669.00;;;;5025892;28;20625;-56
2023/05/05 01:54:04;;;;;;;3.40;3.10;;;22.20;52.80;23.10;100664.00;;;;5026009;28;20202;-57
2023/05/05 01:56:30;;;;;;;3.03;2.83;;;22.20;52.90;23.10;100673.00;;;;5025819;28;20171;-58
2023/05/05 01:58:55;;;;;;;3.27;3.03;;;22.20;52.90;23.10;100660.00;;;;5027261;28;20754;-57
2023/05/05 02:01:23;;;;;;;3.23;3.03;;;22.20;52.80;23.10;100670.00;;;;5026247;28;20182;-56
2023/05/05 02:03:50;;;;;;;3.27;3.07;;;22.20;53.00;23.10;100631.00;;;;5026022;28;20508;-55
2023/05/05 02:06:16;;;;;;;3.20;3.00;;;22.20;52.90;23.00;100675.00;;;;5021626;28;20187;-55
2023/05/05 02:08:41;;;;;;;3.17;2.97;;;22.20;53.00;23.00;100674.00;;;;5030387;28;20199;-56
2023/05/05 02:11:08;;;;;;;3.30;3.10;;;22.20;53.00;23.00;100680.00;;;;5028989;28;20210;-56
2023/05/05 02:13:34;;;;;;;3.30;3.10;;;22.20;53.00;23.00;100666.00;;;;5029258;28;20167;-56
2023/05/05 02:16:00;;;;;;;3.30;3.10;;;22.20;53.00;23.00;100683.00;;;;5029121;28;20241;-56
2023/05/05 02:18:27;;;;;;;3.23;3.03;;;22.20;53.00;23.00;100698.00;;;;5030188;28;20195;-56
2023/05/05 02:20:53;;;;;;;3.40;3.20;;;22.20;53.10;23.00;100696.00;;;;5029155;28;20609;-56
2023/05/05 02:23:18;;;;;;;3.20;3.00;;;22.20;53.10;23.00;100707.00;;;;5030245;28;20175;-56
2023/05/05 02:25:54;;;;;;;3.50;3.20;;;22.10;53.00;23.00;100708.00;;;;5030158;28;20479;-58
2023/05/05 02:28:23;;;;;;;3.40;3.20;;;22.10;53.10;22.90;100705.00;;;;5028679;28;20202;-56
2023/05/05 02:30:56;;;;;;;3.23;3.03;;;22.10;53.10;22.90;100699.00;;;;5028848;28;20637;-56
2023/05/05 02:33:21;;;;;;;3.10;2.90;;;22.10;53.20;22.90;100704.00;;;;5028951;28;20221;-55
2023/05/05 02:35:47;;;;;;;3.53;3.20;;;22.10;53.20;22.90;100699.00;;;;5028708;28;20194;-56
2023/05/05 02:38:16;;;;;;;3.53;3.10;;;22.10;53.20;22.90;100694.00;;;;5028408;28;20614;-56
2023/05/05 02:40:42;;;;;;;4.63;3.10;;;22.10;53.20;22.90;100711.00;;;;5029094;28;20187;-57
2023/05/05 02:43:10;;;;;;;3.50;3.20;;;22.10;53.30;22.90;100715.00;;;;5010869;28;20179;-56
2023/05/05 02:45:35;;;;;;;3.77;3.43;;;22.10;53.40;22.80;100716.00;;;;5028355;28;20198;-55
2023/05/05 02:48:05;;;;;;;3.57;3.27;;;22.10;53.40;22.80;100715.00;;;;5028041;28;20292;-54
2023/05/05 02:50:31;;;;;;;3.60;3.30;;;22.00;53.30;22.80;100725.00;;;;5028515;28;20191;-57
2023/05/05 02:52:58;;;;;;;3.40;3.20;;;22.00;53.30;22.80;100713.00;;;;5028168;28;20602;-56
2023/05/05 02:55:27;;;;;;;3.80;3.37;;;22.00;53.30;22.80;100711.00;;;;5028072;28;20214;-56
2023/05/05 02:58:09;;;;;;;3.67;3.37;;;22.00;53.30;22.80;100726.00;;;;5028075;28;20194;-57
2023/05/05 03:01:25;;;;;;;3.70;3.40;;;22.00;53.40;22.80;100713.00;;;;5028411;28;20186;-55
2023/05/05 03:04:06;;;;;;;3.70;3.30;;;22.00;53.50;22.70;100713.00;;;;5022842;28;20195;-56
2023/05/05 03:06:42;;;;;;;3.80;3.50;;;22.00;53.40;22.50;100692.00;;;;5030723;28;20183;-56
2023/05/05 03:09:12;;;;;;;3.23;3.00;;;22.00;53.50;22.60;100718.00;;;;5035883;28;20205;-56
2023/05/05 03:12:02;;;;;;;3.80;3.50;;;22.00;53.60;22.60;100718.00;;;;5028918;28;20202;-56
2023/05/05 03:14:35;;;;;;;4.00;3.40;;;21.90;53.40;22.60;100713.00;;;;5030893;28;20185;-56
2023/05/05 03:17:02;;;;;;;3.80;3.50;;;22.00;53.60;22.60;100717.00;;;;5028569;28;20747;-57
2023/05/05 03:19:27;;;;;;;3.67;3.30;;;21.90;53.50;22.60;100715.00;;;;5021455;28;20201;-57
2023/05/05 03:21:53;;;;;;;3.40;3.10;;;21.90;53.50;22.60;100719.00;;;;5030993;28;20183;-61
2023/05/05 03:24:19;;;;;;;3.60;3.30;;;21.90;53.50;22.60;100720.00;;;;5044663;28;20203;-58
2023/05/05 03:26:46;;;;;;;3.60;3.30;;;21.90;53.50;22.60;100723.00;;;;5031607;28;20262;-57
2023/05/05 03:29:12;;;;;;;3.53;3.23;;;21.90;53.50;22.60;100731.00;;;;5035371;28;20677;-55
2023/05/05 03:31:38;;;;;;;5.13;3.60;;;21.80;53.70;22.60;100719.00;;;;5028948;28;20199;-55
2023/05/05 03:34:05;;;;;;;4.10;3.47;;;21.90;54.30;22.60;100714.00;;;;5029198;28;20272;-55
2023/05/05 03:36:30;;;;;;;4.30;3.33;;;21.90;53.70;22.60;100710.00;;;;5028762;28;20558;-55
2023/05/05 03:38:57;;;;;;;4.03;3.23;;;21.90;53.60;22.60;100717.00;;;;5028838;28;20277;-55
2023/05/05 03:41:22;;;;;;;3.60;3.30;;;21.80;53.60;22.50;100723.00;;;;5029147;28;20224;-55
2023/05/05 03:43:49;;;;;;;3.80;3.40;;;21.80;53.40;22.50;100717.00;;;;5028989;28;20190;-55
2023/05/05 03:46:15;;;;;;;7.13;3.50;;;21.80;53.60;22.50;100716.00;;;;5021168;28;20177;-58
2023/05/05 03:48:41;;;;;;;6.07;3.60;;;21.80;53.50;22.50;100704.00;;;;5029849;28;20195;-56
2023/05/05 03:51:07;;;;;;;3.50;3.20;;;21.80;53.40;22.50;100712.00;;;;5029855;28;20207;-56
2023/05/05 03:53:33;;;;;;;3.70;3.40;;;21.80;53.40;22.50;100722.00;;;;5030015;28;20747;-56
2023/05/05 03:55:58;;;;;;;4.80;3.27;;;21.80;53.50;22.50;100720.00;;;;5029590;28;20676;-56
2023/05/05 03:58:24;;;;;;;4.00;3.60;;;21.80;53.50;22.50;100720.00;;;;5029334;28;20252;-56
2023/05/05 04:00:50;;;;;;;4.80;3.30;;;21.80;53.50;22.40;100723.00;;;;5029852;28;20752;-56
2023/05/05 04:03:16;;;;;;;4.03;3.67;;;21.70;53.40;22.40;100720.00;;;;5029995;28;20175;-56
2023/05/05 04:05:41;;;;;;;3.30;3.10;;;21.70;53.50;22.40;100703.00;;;;5030395;28;20178;-57
2023/05/05 04:08:07;;;;;;;4.43;3.37;;;21.70;53.50;22.40;100713.00;;;;5029526;28;20206;-55
2023/05/05 04:10:33;;;;;;;3.60;3.30;;;21.70;53.50;22.40;100715.00;;;;5035028;28;20252;-54
2023/05/05 04:12:59;;;;;;;3.70;3.40;;;21.70;53.40;22.40;100731.00;;;;5037537;28;20553;-56
2023/05/05 04:15:24;;;;;;;3.67;3.37;;;21.70;53.50;22.30;100729.00;;;;5028217;28;20181;-56
2023/05/05 04:17:50;;;;;;;3.43;3.20;;;21.60;53.40;22.30;100729.00;;;;5026798;28;20642;-57
2023/05/05 04:20:16;;;;;;;3.90;3.60;;;21.70;53.60;22.30;100737.00;;;;5029152;28;20186;-56
2023/05/05 04:22:42;;;;;;;3.60;3.30;;;21.70;53.50;22.30;100736.00;;;;5029238;28;20170;-56
2023/05/05 04:25:07;;;;;;;3.40;3.20;;;21.60;53.50;22.30;100754.00;;;;5028987;28;20653;-55
2023/05/05 04:27:33;;;;;;;3.70;3.40;;;21.60;53.50;22.30;100749.00;;;;5026237;28;20681;-56
2023/05/05 04:29:59;;;;;;;3.63;3.33;;;21.60;53.50;22.30;100747.00;;;;5027939;28;20277;-56
2023/05/05 04:32:25;;;;;;;3.83;3.53;;;21.60;53.50;22.30;100747.00;;;;5028824;28;20202;-56
2023/05/05 04:34:51;;;;;;;4.07;3.40;;;21.60;53.60;22.30;100753.00;;;;5029251;28;20193;-56
2023/05/05 04:37:17;;;;;;;4.27;3.70;;;21.60;53.60;22.20;100755.00;;;;5027721;28;20198;-55
2023/05/05 04:39:43;;;;;;;3.80;3.50;;;21.60;53.70;22.20;100760.00;;;;5029113;28;20278;-56
2023/05/05 04:42:09;;;;;;;3.53;3.23;;;21.60;53.70;22.20;100755.00;;;;5029127;28;20175;-55
2023/05/05 04:44:35;;;;;;;3.70;3.40;;;21.60;53.70;22.20;100757.00;;;;5028864;28;20543;-56
2023/05/05 04:47:00;;;;;;;3.97;3.67;;;21.50;53.60;22.20;100756.00;;;;5027042;28;20673;-57
2023/05/05 04:49:29;;;;;;;4.07;3.50;;;21.60;53.80;22.20;100759.00;;;;5028658;28;20191;-55
2023/05/05 04:51:55;;;;;;;4.07;3.67;;;21.60;54.00;22.20;100770.00;;;;5027941;28;20209;-55
2023/05/05 04:54:21;;;;;;;5.00;4.00;;;21.60;54.10;22.20;100760.00;;;;5023999;28;20207;-58
2023/05/05 04:56:47;;;;;;;4.33;3.60;;;21.50;54.10;22.20;100764.00;;;;5020816;28;20181;-56
2023/05/05 04:59:14;;;;;;;4.07;3.60;;;21.50;54.30;22.20;100772.00;;;;5028449;28;20202;-58
2023/05/05 05:01:40;;;;;;;5.73;3.70;;;21.50;54.20;22.10;100776.00;;;;5026620;28;20190;-55
2023/05/05 05:04:06;;;;;;;5.37;3.70;;;21.50;54.20;22.20;100776.00;;;;5027330;28;20187;-57
2023/05/05 05:06:31;;;;;;;4.63;3.77;;;21.50;54.20;22.20;100773.00;;;;5028200;28;20205;-56
2023/05/05 05:08:57;;;;;;;5.23;3.60;;;21.50;54.30;22.10;100782.00;;;;5034154;28;20202;-59
2023/05/05 05:11:23;;;;;;;7.00;4.10;;;21.50;54.20;22.10;100773.00;;;;5048828;28;20261;-56
2023/05/05 05:13:49;;;;;;;7.13;4.00;;;21.50;54.40;22.10;100777.00;;;;5029542;28;20178;-56
2023/05/05 05:16:14;;;;;;;4.97;3.83;;;21.50;54.30;22.10;100792.00;;;;5011947;28;20216;-56
2023/05/05 05:18:40;;;;;;;8.60;4.10;;;21.50;54.40;22.10;100787.00;;;;5030870;28;20191;-57
2023/05/05 05:21:06;;;;;;;7.07;4.10;;;21.50;54.30;22.10;100790.00;;;;5030922;28;20270;-58
2023/05/05 05:23:32;;;;;;;6.27;4.33;;;21.50;54.40;22.10;100789.00;;;;5035530;28;20195;-56
2023/05/05 05:25:57;;;;;;;8.77;4.60;;;21.50;54.30;22.10;100789.00;;;;5046502;28;20182;-56
2023/05/05 05:28:23;;;;;;;8.33;4.37;;;21.50;54.40;22.10;100781.00;;;;5028554;28;20206;-56
2023/05/05 05:30:49;;;;;;;8.63;4.87;;;21.40;54.30;22.10;100782.00;;;;5028829;28;20203;-56
2023/05/05 05:33:15;;;;;;;7.57;4.23;;;21.40;54.20;22.10;100781.00;;;;5028787;28;20410;-55
2023/05/05 05:35:40;;;;;;;11.00;4.67;;;21.40;54.30;22.00;100787.00;;;;5019170;28;20187;-55
2023/05/05 05:38:06;;;;;;;8.23;4.57;;;21.40;54.30;22.00;100796.00;;;;5026328;28;20207;-55
2023/05/05 05:40:32;;;;;;;5.97;4.30;;;21.40;54.30;22.00;100803.00;;;;5031542;28;20312;-55
2023/05/05 05:42:58;;;;;;;8.63;4.13;;;21.40;54.30;22.00;100811.00;;;;5032134;28;20190;-56
2023/05/05 05:45:24;;;;;;;7.33;3.90;;;21.40;54.30;22.00;100799.00;;;;5031643;28;20243;-57
2023/05/05 05:47:49;;;;;;;8.30;4.50;;;21.40;54.30;22.00;100802.00;;;;5031240;28;20699;-56
2023/05/05 05:50:15;;;;;;;7.73;4.40;;;21.40;54.40;22.00;100794.00;;;;5031238;28;20665;-57
2023/05/05 05:52:41;;;;;;;6.77;4.30;;;21.40;54.40;22.00;100796.00;;;;5031694;28;20172;-55
2023/05/05 05:55:07;;;;;;;8.30;4.30;;;21.30;54.30;22.00;100792.00;;;;5031030;28;20834;-55
2023/05/05 05:57:33;;;;;;;9.90;4.53;;;21.40;54.40;22.00;100763.00;;;;5030954;28;20171;-56
2023/05/05 05:59:59;;;;;;;6.77;4.40;;;21.40;54.50;22.00;100789.00;;;;5031288;28;20711;-57
2023/05/05 06:02:26;;;;;;;6.83;4.43;;;21.40;54.40;22.00;100810.00;;;;5031004;28;20249;-56
2023/05/05 06:04:51;;;;;;;7.93;4.57;;;21.30;54.40;21.90;100797.00;;;;5030848;28;20183;-56
2023/05/05 06:07:17;;;;;;;6.73;4.23;;;21.30;54.40;21.90;100789.00;;;;5030836;28;20547;-56
2023/05/05 06:09:43;;;;;;;7.63;4.43;;;21.30;54.40;21.90;100796.00;;;;5031135;28;20206;-57
2023/05/05 06:12:09;;;;;;;7.07;4.30;;;21.30;54.40;21.90;100799.00;;;;5030577;28;20179;-56
2023/05/05 06:14:35;;;;;;;7.17;4.40;;;21.30;54.50;21.90;100809.00;;;;5029882;28;20197;-56
2023/05/05 06:17:00;;;;;;;4.63;4.00;;;21.30;54.50;21.90;100800.00;;;;5029712;28;20232;-56
2023/05/05 06:19:26;;;;;;;4.67;3.80;;;21.30;54.50;21.90;100805.00;;;;5029914;28;20191;-57
2023/05/05 06:21:52;;;;;;;7.33;4.00;;;21.30;54.50;21.90;100804.00;;;;5029908;28;20190;-56
2023/05/05 06:24:17;;;;;;;6.73;4.30;;;21.30;54.50;21.90;100812.00;;;;5029683;28;20206;-56
2023/05/05 06:26:43;;;;;;;4.97;4.20;;;21.30;54.60;21.90;100798.00;;;;5029462;28;20539;-56
2023/05/05 06:29:09;;;;;;;6.97;4.33;;;21.30;54.60;21.90;100800.00;;;;5028984;28;20210;-56
2023/05/05 06:31:35;;;;;;;7.40;3.97;;;21.30;54.60;21.80;100806.00;;;;5025697;28;20281;-56
2023/05/05 06:34:00;;;;;;;8.03;4.30;;;21.30;54.60;21.80;100803.00;;;;5030987;28;20182;-56
2023/05/05 06:36:26;;;;;;;5.67;3.93;;;21.30;54.70;21.80;100808.00;;;;5030383;28;20205;-57
2023/05/05 06:38:52;;;;;;;5.77;4.03;;;21.30;54.70;21.80;100809.00;;;;5030486;28;20299;-59
2023/05/05 06:41:18;;;;;;;7.57;4.47;;;21.20;54.60;21.80;100822.00;;;;5030798;28;20266;-55
2023/05/05 06:43:44;;;;;;;5.57;3.70;;;21.20;54.70;21.80;100816.00;;;;5031119;28;20171;-56
2023/05/05 06:46:10;;;;;;;5.53;3.70;;;21.20;54.70;21.80;100808.00;;;;5030439;28;20182;-56
2023/05/05 06:48:35;;;;;;;4.40;3.93;;;21.20;54.70;21.80;100816.00;;;;5030551;28;20202;-55
2023/05/05 06:51:01;;;;;;;5.13;4.07;;;21.20;54.70;21.80;100825.00;;;;5029758;28;20199;-55
2023/05/05 06:53:27;;;;;;;4.60;3.80;;;21.20;54.70;21.80;100821.00;;;;5030737;28;20202;-57
2023/05/05 06:55:52;;;;;;;6.07;4.20;;;21.20;54.80;21.80;100817.00;;;;5030056;28;20186;-57
2023/05/05 06:58:19;;;;;;;4.73;4.10;;;21.20;54.80;21.80;100813.00;;;;5030203;28;20190;-57
2023/05/05 07:00:45;;;;;;;4.50;3.93;;;21.10;54.80;21.80;100811.00;;;;5030644;28;20167;-55
2023/05/05 07:03:11;;;;;;;5.40;3.90;;;21.10;54.80;21.80;100821.00;;;;5030448;28;20182;-55
2023/05/05 07:05:37;;;;;;;5.97;4.07;;;21.10;54.80;21.80;100817.00;;;;5029671;28;20550;-56
2023/05/05 07:08:02;;;;;;;5.50;3.83;;;21.10;54.80;21.80;100820.00;;;;5029909;28;20251;-56
2023/05/05 07:10:28;;;;;;;5.47;4.00;;;21.10;54.80;21.80;100836.00;;;;5030507;28;20564;-57
2023/05/05 07:12:54;;;;;;;6.07;4.00;;;21.20;55.00;21.80;100832.00;;;;5047132;28;20182;-59
2023/05/05 07:15:21;;;;;;;5.37;4.10;;;21.10;54.90;21.80;100846.00;;;;5034445;28;20190;-56
2023/05/05 07:17:47;;;;;;;6.17;3.83;;;21.10;55.00;21.80;100846.00;;;;5031593;28;20167;-58
2023/05/05 07:20:12;;;;;;;4.07;3.67;;;21.10;55.00;21.80;100850.00;;;;5031379;28;20675;-56
2023/05/05 07:22:38;;;;;;;4.83;4.00;;;21.10;55.10;21.80;100847.00;;;;5031013;28;20178;-55
2023/05/05 07:25:04;;;;;;;4.77;4.10;;;21.10;55.10;21.80;100850.00;;;;5028744;28;20186;-57
2023/05/05 07:27:34;;;;;;;5.37;3.60;;;21.10;55.30;21.80;100845.00;;;;5043302;28;20188;-59
2023/05/05 07:30:00;;;;;;;4.40;3.57;;;21.10;55.30;21.80;100858.00;;;;5041437;28;20697;-57
2023/05/05 07:32:25;;;;;;;4.33;3.90;;;21.10;55.40;21.80;100854.00;;;;5023855;28;20258;-55
2023/05/05 07:34:51;;;;;;;4.20;3.80;;;21.10;55.40;21.80;100860.00;;;;5030472;28;20305;-56
2023/05/05 07:37:17;;;;;;;4.37;3.57;;;21.20;55.50;21.90;100861.00;;;;5029408;28;20174;-55
2023/05/05 07:39:43;;;;;;;4.90;3.77;;;21.10;55.50;21.90;100860.00;;;;5029736;28;20195;-55
2023/05/05 07:42:09;;;;;;;6.37;3.97;;;21.10;55.50;21.90;100860.00;;;;5029409;28;20182;-58
2023/05/05 07:44:35;;;;;;;4.63;3.80;;;21.10;55.70;21.90;100872.00;;;;5028539;28;20175;-58
2023/05/05 07:47:01;;;;;;;4.40;3.80;;;21.10;55.90;21.90;100869.00;;;;5029299;28;20194;-56
2023/05/05 07:49:26;;;;;;;7.20;4.03;;;21.10;56.20;21.90;100853.00;;;;5029089;28;20205;-57
2023/05/05 07:51:53;;;;;;;5.47;3.67;;;21.20;56.10;21.90;100860.00;;;;5029863;28;20210;-57
2023/05/05 07:54:18;;;;;;;4.57;3.70;;;21.10;56.10;21.90;100853.00;;;;5030222;28;20179;-58
2023/05/05 07:56:44;;;;;;;7.63;4.03;;;21.10;56.10;21.90;100794.00;;;;5030095;28;20676;-57
2023/05/05 07:59:10;;;;;;;7.50;4.10;;;21.10;56.20;21.90;100857.00;;;;5030464;28;20195;-57
2023/05/05 08:01:37;;;;;;;4.47;3.53;;;21.10;56.20;21.90;100859.00;;;;5030335;28;20244;-57
2023/05/05 08:04:03;;;;;;;5.00;3.80;;;21.10;56.20;21.90;100860.00;;;;5029850;28;20190;-56
2023/05/05 08:06:30;;;;;;;5.63;3.63;;;21.10;56.30;21.90;100857.00;;;;5029345;28;20183;-57
2023/05/05 08:08:56;;;;;;;4.73;3.70;;;21.10;56.40;21.90;100856.00;;;;5029253;28;20214;-57
2023/05/05 08:11:22;;;;;;;4.27;3.77;;;21.10;56.40;22.00;100849.00;;;;5029381;28;20202;-58
2023/05/05 08:13:48;;;;;;;4.07;3.73;;;21.10;56.40;22.00;100851.00;;;;5029591;28;20273;-58
2023/05/05 08:16:14;;;;;;;4.57;3.70;;;21.10;56.40;22.00;100849.00;;;;5027076;28;20653;-64
2023/05/05 08:18:40;;;;;;;5.73;3.80;;;21.10;56.40;22.00;100853.00;;;;5037080;28;20199;-59
2023/05/05 08:21:09;;;;;;;3.83;3.43;;;21.10;56.50;22.00;100851.00;;;;5037066;28;20217;-57
2023/05/05 08:23:35;;;;;;;3.87;3.47;;;21.10;56.50;22.00;100847.00;;;;5029955;28;20706;-55
2023/05/05 08:26:01;;;;;;;4.77;3.60;;;21.20;56.60;22.00;100855.00;;;;5028502;28;20238;-56
2023/05/05 08:28:28;;;;;;;4.03;3.60;;;21.10;56.50;22.00;100852.00;;;;5029050;28;20215;-56
2023/05/05 08:30:55;;;;;;;3.90;3.50;;;21.10;56.60;22.00;100847.00;;;;5029406;28;20304;-57
2023/05/05 08:33:21;;;;;;;5.03;3.73;;;21.10;56.70;22.00;100851.00;;;;5029184;28;20262;-56
2023/05/05 08:35:48;;;;;;;3.83;3.50;;;21.20;56.80;22.00;100849.00;;;;5029034;28;20175;-57
2023/05/05 08:38:13;;;;;;;4.00;3.60;;;21.10;56.70;22.00;100850.00;;;;5028975;28;20212;-55
2023/05/05 08:40:39;;;;;;;4.23;3.60;;;21.20;56.90;22.00;100849.00;;;;5027833;28;20179;-56
2023/05/05 08:43:05;;;;;;;3.80;3.50;;;21.10;56.90;22.00;100849.00;;;;5011582;28;20202;-56
2023/05/05 08:45:31;;;;;;;3.83;3.47;;;21.10;56.90;22.00;100854.00;;;;5027764;28;20214;-56
2023/05/05 08:48:02;;;;;;;4.10;3.43;;;21.20;56.90;22.00;100849.00;;;;5028617;28;20222;-56
2023/05/05 08:50:28;;;;;;;3.77;3.43;;;21.20;57.00;22.00;100849.00;;;;5027810;28;20306;-56
2023/05/05 08:53:09;;;;;;;3.90;3.50;;;21.20;56.90;22.00;100843.00;;;;5030223;28;20186;-60
2023/05/05 08:55:39;;;;;;;3.80;3.50;;;21.10;56.90;22.00;100857.00;;;;5022640;28;20185;-56
2023/05/05 08:58:06;;;;;;;4.67;3.80;;;21.20;57.10;22.00;100848.00;;;;5027498;28;20207;-56
2023/05/05 09:00:31;;;;;;;3.73;3.43;;;21.20;57.10;22.00;100848.00;;;;5028894;28;20198;-56
2023/05/05 09:02:58;;;;;;;4.00;3.60;;;21.20;57.20;22.00;100849.00;;;;5029186;28;20252;-56
2023/05/05 09:05:25;;;;;;;3.53;3.23;;;21.20;57.30;22.10;100855.00;;;;5029177;28;20179;-57
2023/05/05 09:07:51;;;;;;;4.40;3.60;;;21.20;57.90;22.10;100860.00;;;;5029026;28;20555;-56
2023/05/05 09:10:16;;;;;;;4.07;3.67;;;21.20;57.50;22.10;100846.00;;;;5027784;28;20202;-56
2023/05/05 09:12:42;;;;;;;3.90;3.50;;;21.20;57.70;22.10;100849.00;;;;5027616;28;20175;-56
2023/05/05 09:15:10;;;;;;;4.50;3.50;;;21.20;57.70;22.10;100872.00;;;;5030637;28;20191;-55
2023/05/05 09:17:36;;;;;;;5.50;3.40;;;21.20;57.70;22.10;100867.00;;;;5045102;28;20175;-57
2023/05/05 09:20:03;;;;;;;3.80;3.40;;;21.30;57.80;22.10;100860.00;;;;5042423;28;20186;-57
2023/05/05 09:22:43;;;;;;;3.87;3.57;;;21.20;57.70;22.10;100859.00;;;;5033986;28;20191;-56
2023/05/05 09:25:11;;;;;;;3.87;3.57;;;21.30;57.80;22.10;100864.00;;;;5032650;28;20203;-56
2023/05/05 09:27:47;;;;;;;3.73;3.43;;;21.30;57.80;22.10;100869.00;;;;5032557;28;20665;-54
2023/05/05 09:30:31;;;;;;;5.53;3.90;;;21.30;57.80;22.10;100863.00;;;;5034373;28;20285;-57
2023/05/05 09:32:56;;;;;;;3.50;3.20;;;21.30;57.90;22.10;100865.00;;;;5033502;28;20293;-58
2023/05/05 09:35:22;;;;;;;3.50;3.20;;;21.30;58.00;22.10;100850.00;;;;5040734;28;20226;-55
2023/05/05 09:37:48;;;;;;;3.80;3.50;;;21.30;58.00;22.20;100867.00;;;;5030974;28;20203;-55
2023/05/05 09:40:16;;;;;;;3.87;3.57;;;21.30;58.10;22.20;100871.00;;;;5032434;28;20195;-56
2023/05/05 09:42:43;;;;;;;3.70;3.30;;;21.30;57.90;22.20;100863.00;;;;5031099;28;20212;-56
2023/05/05 09:45:23;;;;;;;3.73;3.30;;;21.30;58.30;22.20;100871.00;;;;5031756;28;20239;-56
2023/05/05 09:47:49;;;;;;;5.43;3.30;;;21.40;58.70;22.20;100868.00;;;;5030960;28;20183;-58
2023/05/05 09:50:17;;;;;;;6.63;3.37;;;21.40;59.40;22.20;100868.00;;;;5031698;28;20784;-58
2023/05/05 09:53:02;;;;;;;3.53;3.20;;;21.40;59.10;22.20;100850.00;;;;5030677;28;20175;-56
2023/05/05 09:55:29;;;;;;;3.60;3.30;;;21.40;59.00;22.20;100850.00;;;;5032004;28;20175;-57
2023/05/05 09:57:55;;;;;;;3.57;3.13;;;21.40;59.00;22.20;100847.00;;;;5031406;28;20195;-57
2023/05/05 10:00:21;;;;;;;3.80;3.40;;;21.40;59.00;22.30;100846.00;;;;5031358;28;20182;-56
2023/05/05 10:02:47;;;;;;;3.63;3.33;;;21.40;58.90;22.30;100848.00;;;;5030812;28;20189;-57
2023/05/05 10:05:16;;;;;;;5.37;3.10;;;21.40;59.00;22.30;100846.00;;;;5031946;28;20238;-56
2023/05/05 10:07:46;;;;;;;3.40;3.10;;;21.40;59.00;22.30;100837.00;;;;5031882;28;20171;-57
2023/05/05 10:10:13;;;;;;;7.30;3.43;;;21.40;59.00;22.30;100834.00;;;;5029772;28;20261;-57
2023/05/05 10:12:39;;;;;;;4.07;3.33;;;21.40;58.90;22.30;100828.00;;;;5030569;28;20262;-57
2023/05/05 10:15:07;;;;;;;3.20;2.90;;;21.40;59.10;22.30;100830.00;;;;5023210;28;20282;-56
2023/05/05 10:17:44;;;;;;;4.10;3.20;;;21.50;59.20;22.30;100827.00;;;;5030710;28;20209;-54
2023/05/05 10:20:10;;;;;;;3.70;3.40;;;21.50;59.30;22.40;100824.00;;;;5030327;28;20197;-56
2023/05/05 10:22:36;;;;;;;4.03;3.20;;;21.50;59.80;22.40;100822.00;;;;5030068;28;20186;-54
2023/05/05 10:25:09;;;;;;;4.40;3.50;;;21.50;59.90;22.40;100820.00;;;;5029980;28;20241;-54
2023/05/05 10:27:42;;;;;;;4.97;3.50;;;21.50;59.90;22.40;100798.00;;;;5029675;28;20206;-52
2023/05/05 10:30:16;;;;;;;3.63;3.33;;;21.60;59.90;22.40;100802.00;;;;5030473;28;20619;-54
2023/05/05 10:32:45;;;;;;;5.00;3.53;;;21.60;59.90;22.50;100808.00;;;;5030363;28;20210;-55
2023/05/05 10:35:15;;;;;;;4.10;3.33;;;21.60;59.70;22.50;100810.00;;;;5029572;28;20595;-53
2023/05/05 10:37:41;;;;;;;4.93;3.80;;;21.60;59.70;22.50;100815.00;;;;5029787;28;20780;-53
2023/05/05 10:40:08;;;;;;;3.80;3.50;;;21.70;59.60;22.50;100797.00;;;;5029751;28;20186;-54
2023/05/05 10:42:37;;;;;;;5.33;3.30;;;21.70;59.70;22.50;100788.00;;;;5031305;28;20182;-56
2023/05/05 10:45:03;;;;;;;4.77;3.50;;;21.70;59.90;22.50;100797.00;;;;5029786;28;20619;-54
2023/05/05 10:47:29;;;;;;;5.77;3.50;;;21.70;60.00;22.50;100806.00;;;;5030452;28;20698;-53
2023/05/05 10:50:01;;;;;;;3.50;3.20;;;21.70;60.00;22.60;100792.00;;;;5029020;28;20206;-53
2023/05/05 10:52:33;;;;;;;3.67;3.33;;;21.70;60.00;22.60;100789.00;;;;5029364;28;20815;-53